Time;durP1;ratioP1;P1;durP2;ratioP2;P2;SDS_P1;SDS_P2;PMS_P1;PMS_P2;Temp;Humidity;BMP_temperature;BMP_pressure;BME280_temperature;BME280_humidity;BME280_pressure;Samples;Min_cycle;Max_cycle;Signal;HPM_P1;HPM_P2
2022/07/25 00:01:57;;;;;;;9.07;8.27;;;;;;;18.59;92.01;101210.78;5011298;28;20472;-47
2022/07/25 00:04:27;;;;;;;10.90;8.93;;;;;;;18.62;92.29;101213.03;5011683;28;20433;-47
2022/07/25 00:06:54;;;;;;;9.17;8.40;;;;;;;18.67;91.87;101204.19;5011700;28;20460;-43
2022/07/25 00:09:22;;;;;;;9.97;9.27;;;;;;;18.69;92.19;101211.00;5011991;28;20440;-48
2022/07/25 00:11:50;;;;;;;8.33;7.77;;;;;;;18.73;91.60;101203.22;5014498;28;20464;-45
2022/07/25 00:14:19;;;;;;;9.10;8.40;;;;;;;18.76;91.43;101203.56;5015441;28;20495;-44
2022/07/25 00:16:46;;;;;;;9.10;8.40;;;;;;;18.79;91.32;101210.38;5015694;28;20468;-45
2022/07/25 00:19:14;;;;;;;9.77;9.00;;;;;;;18.83;91.39;101199.91;5015767;28;20459;-46
2022/07/25 00:21:41;;;;;;;10.00;9.20;;;;;;;18.87;91.21;101203.78;5014983;28;20479;-43
2022/07/25 00:24:09;;;;;;;13.50;9.67;;;;;;;18.92;91.28;101201.19;5015718;28;20433;-45
2022/07/25 00:26:37;;;;;;;9.43;8.73;;;;;;;18.97;91.38;101196.69;5015515;28;20463;-46
2022/07/25 00:29:07;;;;;;;10.00;9.30;;;;;;;19.02;91.44;101202.22;5015446;28;20491;-44
2022/07/25 00:31:36;;;;;;;11.43;10.63;;;;;;;19.10;91.82;101201.00;5015031;28;20472;-43
2022/07/25 00:34:04;;;;;;;10.03;9.33;;;;;;;19.12;92.04;101194.28;5008854;28;20500;-43
2022/07/25 00:36:32;;;;;;;11.60;10.50;;;;;;;19.16;92.00;101183.81;5010619;28;20824;-43
2022/07/25 00:38:59;;;;;;;9.97;9.27;;;;;;;19.17;91.58;101188.16;5015458;28;20433;-43
2022/07/25 00:41:27;;;;;;;10.50;9.60;;;;;;;19.20;91.21;101190.38;5014833;28;20460;-43
2022/07/25 00:43:54;;;;;;;8.80;8.20;;;;;;;19.22;90.85;101182.84;5014958;28;20808;-45
2022/07/25 00:46:22;;;;;;;9.87;9.17;;;;;;;19.24;90.56;101180.72;5015014;28;20475;-45
2022/07/25 00:48:51;;;;;;;13.43;12.20;;;;;;;19.26;90.43;101186.72;5015057;28;20837;-43
2022/07/25 00:51:19;;;;;;;9.97;9.27;;;;;;;19.29;90.24;101188.94;5014899;28;20468;-46
2022/07/25 00:53:47;;;;;;;10.80;10.10;;;;;;;19.32;90.10;101186.53;5014788;28;20962;-43
2022/07/25 00:56:16;;;;;;;10.43;9.73;;;;;;;19.33;89.87;101177.38;5014771;28;20476;-45
2022/07/25 00:58:44;;;;;;;11.57;10.57;;;;;;;19.34;89.74;101173.63;5015044;28;20432;-45
2022/07/25 01:01:12;;;;;;;9.83;9.10;;;;;;;19.37;89.77;101171.47;5014205;28;20463;-43
2022/07/25 01:03:40;;;;;;;11.03;10.13;;;;;;;19.39;89.75;101169.34;5014739;28;20795;-44
2022/07/25 01:06:09;;;;;;;11.10;10.27;;;;;;;19.40;89.50;101162.91;5014783;28;20455;-47
2022/07/25 01:08:37;;;;;;;11.23;10.40;;;;;;;19.37;90.10;101158.78;5014740;28;20444;-44
2022/07/25 01:11:05;;;;;;;11.73;10.73;;;;;;;19.39;90.94;101155.81;5014267;28;20463;-44
2022/07/25 01:13:33;;;;;;;11.30;10.37;;;;;;;19.39;91.19;101147.69;5014215;28;20424;-44
2022/07/25 01:16:01;;;;;;;13.20;12.27;;;;;;;19.41;91.36;101151.03;5014260;28;20565;-48
2022/07/25 01:18:29;;;;;;;12.10;11.10;;;;;;;19.40;91.34;101136.69;4999506;28;20523;-45
2022/07/25 01:20:58;;;;;;;11.07;10.27;;;;;;;19.40;91.27;101135.88;4990133;28;20814;-44
2022/07/25 01:23:26;;;;;;;12.97;12.03;;;;;;;19.42;91.25;101134.56;4992335;28;20449;-46
2022/07/25 01:25:53;;;;;;;11.70;10.90;;;;;;;19.43;91.34;101129.97;4994924;28;20457;-44
2022/07/25 01:28:21;;;;;;;12.30;11.40;;;;;;;19.44;91.46;101127.03;4994631;28;20434;-45
2022/07/25 01:30:49;;;;;;;12.67;11.63;;;;;;;19.45;91.46;101122.41;4994126;28;20812;-46
2022/07/25 01:33:18;;;;;;;10.93;10.13;;;;;;;19.45;91.36;101114.31;4992556;28;20446;-43
2022/07/25 01:35:46;;;;;;;14.00;12.50;;;;;;;19.45;91.35;101106.19;4994333;28;20478;-45
2022/07/25 01:38:16;;;;;;;12.40;11.30;;;;;;;19.46;91.30;101099.72;4994752;28;20464;-46
2022/07/25 01:40:44;;;;;;;11.23;10.53;;;;;;;19.46;91.45;101102.44;4994699;28;20425;-47
2022/07/25 01:43:12;;;;;;;11.40;10.67;;;;;;;19.45;91.25;101095.38;4993781;28;20457;-45
2022/07/25 01:45:41;;;;;;;12.00;10.47;;;;;;;19.44;91.11;101091.03;4987054;28;20955;-45
2022/07/25 01:48:08;;;;;;;12.27;11.27;;;;;;;19.46;91.28;101086.19;4989227;28;20446;-43
2022/07/25 01:50:36;;;;;;;11.03;10.33;;;;;;;19.45;91.08;101073.72;4994280;28;20435;-45
2022/07/25 01:53:05;;;;;;;10.67;9.97;;;;;;;19.43;91.06;101076.69;4993554;28;20470;-44
2022/07/25 01:55:34;;;;;;;13.97;12.90;;;;;;;19.47;91.33;101080.56;4994126;28;20548;-44
2022/07/25 01:58:03;;;;;;;12.50;11.50;;;;;;;19.49;91.35;101069.47;4989508;28;20449;-45
2022/07/25 02:00:32;;;;;;;13.13;12.10;;;;;;;19.51;91.43;101065.44;4994034;28;20460;-46
2022/07/25 02:05:45;;;;;;;13.90;12.90;;;;;;;19.62;92.00;101052.91;4993938;28;20843;-43
2022/07/25 02:08:13;;;;;;;13.73;12.73;;;;;;;19.65;92.19;101039.69;4994192;28;20564;-46
2022/07/25 02:10:43;;;;;;;12.40;11.50;;;;;;;19.68;92.16;101046.50;4993993;28;20433;-43
2022/07/25 02:13:10;;;;;;;13.60;12.70;;;;;;;19.71;91.97;101040.59;4993114;28;20474;-43
2022/07/25 02:15:38;;;;;;;13.40;12.00;;;;;;;19.70;91.76;101038.94;4993608;28;20477;-44
2022/07/25 02:18:05;;;;;;;12.53;11.63;;;;;;;19.71;91.66;101038.69;4993667;28;20444;-46
2022/07/25 02:20:33;;;;;;;13.10;12.10;;;;;;;19.71;91.55;101032.47;4993679;28;20541;-45
2022/07/25 02:23:01;;;;;;;15.17;14.00;;;;;;;19.69;90.78;101029.19;4993157;28;20473;-43
2022/07/25 02:25:28;;;;;;;13.17;11.97;;;;;;;19.66;91.20;101035.09;4993766;28;20436;-44
2022/07/25 02:27:57;;;;;;;12.57;11.67;;;;;;;19.65;91.21;101025.38;4993470;28;21016;-43
2022/07/25 02:30:25;;;;;;;11.73;10.93;;;;;;;19.65;91.22;101022.66;4993640;28;20951;-43
2022/07/25 02:32:53;;;;;;;12.33;11.43;;;;;;;19.66;91.38;101022.41;4990421;28;20490;-46
2022/07/25 02:35:21;;;;;;;13.23;12.33;;;;;;;19.69;91.43;101013.78;5004766;28;20428;-43
2022/07/25 02:37:49;;;;;;;13.10;12.00;;;;;;;19.73;91.47;101019.50;5013080;28;20453;-44
2022/07/25 02:40:16;;;;;;;13.70;12.57;;;;;;;19.74;91.35;101003.00;5013040;28;20439;-45
2022/07/25 02:42:44;;;;;;;13.53;12.63;;;;;;;19.75;91.11;101011.97;5012312;28;20464;-44
2022/07/25 02:45:13;;;;;;;15.03;13.80;;;;;;;19.75;91.32;101001.97;5012917;28;20440;-45
2022/07/25 02:47:41;;;;;;;16.07;14.47;;;;;;;19.76;92.04;101002.78;5013037;28;20453;-43
2022/07/25 02:50:09;;;;;;;16.10;14.73;;;;;;;19.77;92.89;101001.72;5013286;28;20444;-44
2022/07/25 02:52:41;;;;;;;15.07;13.97;;;;;;;19.74;93.18;100989.47;5012205;28;20522;-43
2022/07/25 02:55:10;;;;;;;14.30;13.10;;;;;;;19.72;93.55;100988.09;5012797;28;20428;-43
2022/07/25 02:57:38;;;;;;;15.43;14.20;;;;;;;19.70;93.83;100980.25;5012524;28;20476;-44
2022/07/25 03:00:07;;;;;;;16.33;15.03;;;;;;;19.69;94.06;100984.00;5012653;28;20438;-47
2022/07/25 03:02:36;;;;;;;14.77;13.57;;;;;;;19.68;94.07;100976.16;5011854;28;20556;-46
2022/07/25 03:05:07;;;;;;;15.13;14.00;;;;;;;19.68;94.50;100968.03;5012767;28;20439;-48
2022/07/25 03:07:34;;;;;;;15.27;14.07;;;;;;;19.68;94.56;100968.03;5012587;28;20463;-46
2022/07/25 03:10:03;;;;;;;16.17;14.97;;;;;;;19.68;95.21;100957.22;5012505;28;20433;-46
2022/07/25 03:12:38;;;;;;;16.53;15.30;;;;;;;19.68;96.21;100958.03;5011904;28;20471;-44
2022/07/25 03:15:07;;;;;;;16.90;15.40;;;;;;;19.71;96.64;100959.44;5012733;28;20443;-46
2022/07/25 03:17:36;;;;;;;14.27;13.17;;;;;;;19.70;96.44;100957.78;5012406;28;20480;-43
2022/07/25 03:20:06;;;;;;;12.27;11.40;;;;;;;19.70;95.91;100945.06;5012439;28;20439;-43
2022/07/25 03:22:35;;;;;;;13.30;12.30;;;;;;;19.71;94.51;100948.59;5011794;28;20468;-44
2022/07/25 03:25:03;;;;;;;11.37;10.50;;;;;;;19.74;93.25;100953.50;5002140;28;20430;-43
2022/07/25 03:27:30;;;;;;;12.97;11.80;;;;;;;19.77;91.97;100947.59;5007218;28;20452;-43
2022/07/25 03:29:58;;;;;;;12.40;11.40;;;;;;;19.81;91.09;100946.00;5012305;28;20436;-43
2022/07/25 03:32:26;;;;;;;12.33;11.10;;;;;;;19.84;90.41;100943.63;5011226;28;20461;-45
2022/07/25 03:34:55;;;;;;;11.77;10.97;;;;;;;19.88;89.93;100935.81;5002269;28;20429;-45
2022/07/25 03:37:23;;;;;;;13.33;12.30;;;;;;;19.92;88.95;100925.31;5012065;28;20480;-43
2022/07/25 03:39:51;;;;;;;12.93;11.93;;;;;;;19.95;88.31;100927.50;5012223;28;20432;-46
2022/07/25 03:42:19;;;;;;;12.97;11.97;;;;;;;19.99;87.67;100923.19;5011538;28;20461;-47
2022/07/25 03:44:53;;;;;;;11.37;10.57;;;;;;;20.02;86.99;100922.69;5011997;28;20479;-47
2022/07/25 03:47:20;;;;;;;10.93;10.13;;;;;;;20.06;86.27;100921.94;5012233;28;20827;-45
2022/07/25 03:49:48;;;;;;;11.70;10.90;;;;;;;20.09;85.57;100921.44;5011944;28;20478;-45
2022/07/25 03:52:17;;;;;;;11.50;10.60;;;;;;;20.14;85.26;100915.25;5011962;28;20464;-45
2022/07/25 03:54:44;;;;;;;12.23;11.23;;;;;;;20.17;83.97;100914.72;5012423;28;20433;-45
2022/07/25 03:57:12;;;;;;;11.53;10.73;;;;;;;20.22;83.93;100912.91;5012047;28;20990;-47
2022/07/25 03:59:39;;;;;;;10.83;10.03;;;;;;;20.27;83.04;100902.16;5012199;28;20946;-45
2022/07/25 04:02:07;;;;;;;11.90;10.87;;;;;;;20.32;81.90;100901.38;5011431;28;20460;-46
2022/07/25 04:04:35;;;;;;;11.30;10.40;;;;;;;20.38;81.78;100901.16;5011850;28;20803;-48
2022/07/25 04:07:02;;;;;;;10.67;9.97;;;;;;;20.46;81.63;100893.66;5011991;28;20453;-47
2022/07/25 04:09:31;;;;;;;10.83;9.93;;;;;;;20.52;80.82;100888.00;5012056;28;20429;-45
2022/07/25 04:12:00;;;;;;;11.10;10.20;;;;;;;20.60;79.29;100889.44;5011506;28;20467;-43
2022/07/25 04:14:27;;;;;;;11.40;10.50;;;;;;;20.66;78.67;100886.50;5011786;28;20429;-49
2022/07/25 04:16:55;;;;;;;10.53;9.83;;;;;;;20.76;78.88;100883.88;5011561;28;20488;-46
2022/07/25 04:19:23;;;;;;;11.70;10.80;;;;;;;20.84;77.88;100872.56;5011687;28;20919;-48
2022/07/25 04:21:53;;;;;;;10.50;9.60;;;;;;;20.93;76.12;100865.56;5011107;28;20990;-49
2022/07/25 04:24:20;;;;;;;10.50;9.70;;;;;;;21.05;75.57;100872.69;5011536;28;20443;-46
2022/07/25 04:26:49;;;;;;;10.90;10.10;;;;;;;21.14;75.36;100857.56;5011674;28;20977;-46
2022/07/25 04:29:17;;;;;;;10.47;9.77;;;;;;;21.20;73.32;100854.63;5011771;28;20438;-46
2022/07/25 04:31:44;;;;;;;10.27;9.37;;;;;;;21.27;72.83;100849.75;5011038;28;20472;-46
2022/07/25 04:34:12;;;;;;;10.43;9.80;;;;;;;21.40;72.98;100841.16;5004066;28;20475;-46
2022/07/25 04:36:40;;;;;;;11.70;10.73;;;;;;;21.48;71.66;100839.81;5007908;28;20484;-49
2022/07/25 04:39:07;;;;;;;10.33;9.27;;;;;;;21.58;69.84;100841.75;5011580;28;20440;-46
2022/07/25 04:41:35;;;;;;;10.73;9.87;;;;;;;21.70;70.07;100836.91;5010872;28;20467;-47
2022/07/25 04:44:06;;;;;;;9.90;9.10;;;;;;;21.86;69.19;100836.66;5011242;28;20436;-46
2022/07/25 04:46:34;;;;;;;10.20;9.40;;;;;;;22.01;68.29;100839.44;5011708;28;20465;-48
2022/07/25 04:49:02;;;;;;;10.10;9.30;;;;;;;22.19;67.99;100834.59;5011545;28;20432;-50
2022/07/25 04:51:30;;;;;;;10.60;10.00;;;;;;;22.34;66.85;100831.88;5011063;28;20472;-47
2022/07/25 04:53:57;;;;;;;11.30;9.37;;;;;;;22.58;65.93;100824.75;5011175;28;20433;-46
2022/07/25 04:56:25;;;;;;;10.23;9.50;;;;;;;23.21;65.60;100814.34;5012208;28;20992;-44
2022/07/25 04:58:52;;;;;;;10.10;9.20;;;;;;;23.53;61.77;100823.75;5014843;28;20480;-45
2022/07/25 05:01:22;;;;;;;9.77;8.70;;;;;;;23.77;61.45;100812.97;5014610;28;20468;-48
2022/07/25 05:03:49;;;;;;;8.10;7.70;;;;;;;24.13;59.57;100805.41;5014583;28;20471;-46
2022/07/25 05:06:17;;;;;;;8.50;8.00;;;;;;;24.60;54.11;100788.34;5014831;28;20456;-47
2022/07/25 05:08:45;;;;;;;8.83;8.00;;;;;;;24.86;56.71;100794.34;5014786;28;20443;-49
2022/07/25 05:11:13;;;;;;;8.33;7.83;;;;;;;24.78;52.60;100787.59;5014144;28;20475;-44
2022/07/25 05:13:40;;;;;;;8.20;7.60;;;;;;;24.89;55.02;100789.13;5014592;28;20535;-47
2022/07/25 05:16:08;;;;;;;8.53;7.90;;;;;;;25.21;54.53;100786.56;5014544;28;20468;-47
2022/07/25 05:18:37;;;;;;;8.97;8.27;;;;;;;25.26;53.89;100781.06;5014678;28;20882;-44
2022/07/25 05:21:05;;;;;;;9.30;8.50;;;;;;;25.21;54.03;100783.84;5014010;28;20433;-46
2022/07/25 05:23:32;;;;;;;8.77;8.03;;;;;;;25.37;51.47;100783.63;5014073;28;20468;-46
2022/07/25 05:26:00;;;;;;;7.50;7.00;;;;;;;25.21;50.99;100783.84;5014271;28;20463;-44
2022/07/25 05:28:27;;;;;;;8.20;7.70;;;;;;;25.28;52.50;100781.56;5014709;28;20443;-46
2022/07/25 05:30:55;;;;;;;8.10;7.60;;;;;;;25.46;52.91;100776.41;5013900;28;20439;-46
2022/07/25 05:33:23;;;;;;;8.03;7.40;;;;;;;25.54;50.43;100776.59;5011152;28;20804;-46
2022/07/25 05:35:51;;;;;;;7.10;6.70;;;;;;;25.52;51.44;100772.53;5006031;28;20429;-51
2022/07/25 05:38:19;;;;;;;7.70;7.20;;;;;;;25.46;51.54;100782.69;5013962;28;20559;-44
2022/07/25 05:40:47;;;;;;;6.93;6.53;;;;;;;25.42;51.13;100776.19;5013910;28;20435;-50
2022/07/25 05:43:15;;;;;;;7.80;7.27;;;;;;;25.77;51.30;100769.44;5013823;28;20444;-48
2022/07/25 05:45:43;;;;;;;7.83;7.17;;;;;;;26.14;49.90;100769.38;5014156;28;20470;-49
2022/07/25 05:48:11;;;;;;;8.03;7.37;;;;;;;27.30;47.50;100763.66;5014092;28;20440;-46
2022/07/25 05:50:38;;;;;;;7.50;6.77;;;;;;;28.43;48.80;100753.28;5014101;28;20830;-46
2022/07/25 05:53:07;;;;;;;8.53;7.20;;;;;;;29.03;45.01;100751.59;5013226;28;20498;-47
2022/07/25 05:55:35;;;;;;;7.07;6.57;;;;;;;28.85;43.28;100755.41;5014159;28;20432;-49
2022/07/25 05:58:08;;;;;;;7.53;7.10;;;;;;;28.94;45.02;100756.25;5013743;28;20973;-48
2022/07/25 06:00:35;;;;;;;6.90;6.50;;;;;;;28.90;44.68;100749.78;5014143;28;20950;-44
2022/07/25 06:03:03;;;;;;;6.77;6.27;;;;;;;29.08;44.99;100739.66;5013106;28;20482;-45
2022/07/25 06:05:31;;;;;;;7.23;6.63;;;;;;;28.87;43.92;100741.38;5013670;28;20483;-47
2022/07/25 06:07:59;;;;;;;7.37;6.80;;;;;;;29.21;41.11;100743.41;5013904;28;20433;-49
2022/07/25 06:10:28;;;;;;;7.20;6.70;;;;;;;29.08;42.73;100737.72;5013935;28;20433;-44
2022/07/25 06:12:56;;;;;;;7.57;7.03;;;;;;;28.56;43.35;100744.13;5003900;28;20485;-45
2022/07/25 06:15:23;;;;;;;7.20;6.80;;;;;;;28.15;43.67;100738.94;5007982;28;20429;-47
2022/07/25 06:17:54;;;;;;;8.37;7.67;;;;;;;27.81;43.09;100742.19;4991113;28;20473;-49
2022/07/25 06:20:22;;;;;;;7.17;6.70;;;;;;;27.51;44.88;100745.66;4991988;28;20928;-45
2022/07/25 06:22:49;;;;;;;7.00;6.50;;;;;;;27.61;45.20;100734.47;4992510;28;20866;-45
2022/07/25 06:25:17;;;;;;;7.27;6.87;;;;;;;27.42;44.78;100733.81;4992536;28;20436;-47
2022/07/25 06:27:46;;;;;;;8.27;7.43;;;;;;;27.15;45.71;100731.91;5001640;28;20453;-47
2022/07/25 06:30:14;;;;;;;7.40;6.90;;;;;;;26.85;46.24;100738.84;5005976;28;20439;-47
2022/07/25 06:32:47;;;;;;;7.17;6.63;;;;;;;26.65;46.66;100736.47;4992776;28;20484;-46
2022/07/25 06:35:15;;;;;;;7.30;6.90;;;;;;;26.49;47.33;100731.63;4993136;28;21052;-45
2022/07/25 06:37:43;;;;;;;7.97;7.50;;;;;;;26.31;47.42;100725.91;4990151;28;20471;-49
2022/07/25 06:40:11;;;;;;;8.00;7.37;;;;;;;26.10;47.79;100730.09;4990670;28;20943;-46
2022/07/25 06:42:40;;;;;;;7.77;7.17;;;;;;;25.98;48.67;100728.94;5000740;28;20512;-46
2022/07/25 06:45:11;;;;;;;8.10;7.50;;;;;;;25.95;49.18;100719.44;4973684;28;20955;-46
2022/07/25 06:47:39;;;;;;;8.17;7.57;;;;;;;25.88;49.51;100716.25;4973047;28;20458;-48
2022/07/25 06:50:08;;;;;;;7.07;6.60;;;;;;;25.89;49.37;100715.16;4974009;28;20434;-48
2022/07/25 06:52:38;;;;;;;7.23;6.83;;;;;;;26.03;49.59;100710.53;4973218;28;20659;-46
2022/07/25 06:55:07;;;;;;;7.70;7.10;;;;;;;26.42;49.27;100714.78;4973977;28;20438;-45
2022/07/25 06:57:36;;;;;;;6.87;6.47;;;;;;;26.90;49.06;100710.56;4973735;28;20567;-46
2022/07/25 07:00:07;;;;;;;7.80;6.80;;;;;;;27.32;48.60;100715.69;4974038;28;20440;-48
2022/07/25 07:02:47;;;;;;;7.40;6.80;;;;;;;27.63;45.78;100704.81;4973263;28;20466;-47
2022/07/25 07:05:15;;;;;;;7.57;6.90;;;;;;;27.73;47.61;100701.84;4973757;28;20434;-46
2022/07/25 07:07:42;;;;;;;7.97;6.57;;;;;;;27.66;46.84;100695.19;4973691;28;20473;-46
2022/07/25 07:10:14;;;;;;;7.43;6.93;;;;;;;27.60;47.20;100693.72;4973702;28;21031;-44
2022/07/25 07:12:42;;;;;;;7.00;6.40;;;;;;;27.52;47.34;100687.03;4972812;28;20470;-49
2022/07/25 07:15:11;;;;;;;6.87;6.27;;;;;;;27.42;46.66;100699.03;4973472;28;20434;-45
2022/07/25 07:17:41;;;;;;;7.63;6.50;;;;;;;27.30;47.28;100693.25;4971562;28;20474;-47
2022/07/25 07:20:10;;;;;;;6.97;6.57;;;;;;;27.20;46.18;100692.69;4972850;28;20474;-44
2022/07/25 07:22:44;;;;;;;6.93;6.57;;;;;;;27.37;47.51;100692.81;4972963;28;20455;-48
2022/07/25 07:25:13;;;;;;;7.73;7.03;;;;;;;27.43;46.98;100683.41;4973542;28;20437;-46
2022/07/25 07:27:40;;;;;;;6.60;6.20;;;;;;;27.76;46.49;100682.03;4973300;28;20459;-46
2022/07/25 07:30:10;;;;;;;6.80;6.40;;;;;;;27.90;46.57;100673.75;4973317;28;20434;-48
2022/07/25 07:32:37;;;;;;;7.50;7.00;;;;;;;28.01;46.08;100673.19;4974877;28;20471;-44
2022/07/25 07:35:07;;;;;;;7.00;6.50;;;;;;;28.28;45.77;100668.66;5003727;28;20425;-46
2022/07/25 07:37:35;;;;;;;7.00;6.40;;;;;;;28.64;45.50;100655.59;5012316;28;20847;-46
2022/07/25 07:40:10;;;;;;;6.60;6.20;;;;;;;28.90;44.20;100653.72;5012243;28;20487;-47
2022/07/25 07:42:46;;;;;;;7.27;6.77;;;;;;;29.34;44.95;100644.41;5011615;28;20898;-44
2022/07/25 07:45:15;;;;;;;6.80;6.27;;;;;;;29.67;43.32;100638.38;5012013;28;20432;-43
2022/07/25 07:47:43;;;;;;;7.67;6.40;;;;;;;29.70;42.20;100633.03;5011971;28;20800;-43
2022/07/25 07:50:12;;;;;;;6.93;6.40;;;;;;;30.26;40.18;100628.38;5012118;28;20534;-46
2022/07/25 07:52:39;;;;;;;7.37;6.70;;;;;;;30.46;41.41;100622.97;5011413;28;20487;-47
2022/07/25 07:57:53;;;;;;;6.30;5.90;;;;;;;30.41;39.64;100603.06;5011771;28;21029;-44
2022/07/25 08:00:21;;;;;;;7.67;7.27;;;;;;;30.37;38.52;100604.84;5012127;28;20232;-50
2022/07/25 08:02:51;;;;;;;7.20;6.60;;;;;;;30.69;39.67;100604.19;5011308;28;20230;-51
2022/07/25 08:05:24;;;;;;;8.77;8.17;;;;;;;30.69;39.93;100606.94;5012328;28;20492;-46
2022/07/25 08:07:53;;;;;;;7.20;6.70;;;;;;;30.54;39.31;100607.53;5012066;28;20461;-46
2022/07/25 08:10:23;;;;;;;7.70;7.13;;;;;;;30.71;39.68;100599.97;5011856;28;20201;-46
2022/07/25 08:12:51;;;;;;;7.60;7.00;;;;;;;30.89;39.60;100606.13;5011166;28;20228;-49
2022/07/25 08:15:20;;;;;;;7.63;6.90;;;;;;;31.00;39.07;100614.84;5011899;28;20202;-46
2022/07/25 08:17:50;;;;;;;7.60;7.00;;;;;;;31.30;38.93;100618.34;5011595;28;20229;-50
2022/07/25 08:20:18;;;;;;;7.07;6.67;;;;;;;31.14;38.47;100620.91;5011718;28;20717;-49
2022/07/25 08:23:06;;;;;;;7.60;7.10;;;;;;;31.27;37.96;100621.75;5011362;28;20253;-47
2022/07/25 08:25:35;;;;;;;8.10;7.53;;;;;;;31.46;37.79;100611.03;5011842;28;20200;-50
2022/07/25 08:28:05;;;;;;;8.07;7.33;;;;;;;31.34;38.88;100603.53;5011737;28;20204;-46
2022/07/25 08:30:33;;;;;;;6.67;6.33;;;;;;;31.64;37.33;100607.78;5011612;28;20428;-50
2022/07/25 08:33:03;;;;;;;8.60;7.90;;;;;;;32.01;37.76;100605.94;5011268;28;20228;-45
2022/07/25 08:35:31;;;;;;;10.13;6.83;;;;;;;32.25;36.32;100594.13;5007191;28;20197;-44
2022/07/25 08:38:00;;;;;;;7.40;7.00;;;;;;;32.25;37.79;100596.88;5015436;28;20606;-45
2022/07/25 08:40:30;;;;;;;7.37;6.87;;;;;;;32.73;36.25;100588.59;5015675;28;20217;-46
2022/07/25 08:42:58;;;;;;;8.17;7.73;;;;;;;32.58;35.82;100592.06;5014705;28;20255;-46
2022/07/25 08:45:27;;;;;;;7.50;7.07;;;;;;;32.61;36.18;100593.31;5015309;28;20194;-46
2022/07/25 08:47:56;;;;;;;9.93;7.93;;;;;;;32.60;35.27;100591.69;5015072;28;20591;-45
2022/07/25 08:50:25;;;;;;;7.47;6.97;;;;;;;32.69;35.41;100597.91;5015303;28;20221;-46
2022/07/25 08:52:54;;;;;;;7.40;6.90;;;;;;;32.40;35.55;100592.63;5014711;28;20229;-47
2022/07/25 08:55:44;;;;;;;8.13;7.57;;;;;;;32.39;36.80;100594.56;5015473;28;20582;-45
2022/07/25 08:58:14;;;;;;;8.20;7.70;;;;;;;32.38;36.13;100587.44;5015086;28;20194;-48
2022/07/25 09:00:42;;;;;;;7.03;6.63;;;;;;;32.56;36.20;100588.00;5015091;28;20241;-44
2022/07/25 09:03:11;;;;;;;8.80;8.30;;;;;;;32.50;36.99;100579.16;5014307;28;20292;-47
2022/07/25 09:05:39;;;;;;;8.40;7.90;;;;;;;32.62;36.67;100578.34;5014912;28;20202;-45
2022/07/25 09:08:09;;;;;;;8.30;7.60;;;;;;;32.99;35.61;100576.31;5014956;28;20190;-45
2022/07/25 09:10:38;;;;;;;8.20;7.60;;;;;;;32.88;35.95;100577.97;5014828;28;20194;-47
2022/07/25 09:13:12;;;;;;;7.97;7.47;;;;;;;32.91;36.19;100572.53;5014006;28;20226;-47
2022/07/25 09:15:42;;;;;;;7.70;7.30;;;;;;;33.09;36.19;100565.59;5014661;28;20562;-45
2022/07/25 09:18:13;;;;;;;7.80;7.30;;;;;;;33.30;36.04;100568.16;5014872;28;20560;-43
2022/07/25 09:20:44;;;;;;;7.60;7.10;;;;;;;33.73;35.68;100567.34;5014757;28;20217;-46
2022/07/25 09:23:13;;;;;;;8.40;7.73;;;;;;;33.74;34.69;100560.66;5014329;28;20688;-44
2022/07/25 09:25:42;;;;;;;8.07;7.67;;;;;;;33.82;34.90;100557.72;5014803;28;20202;-46
2022/07/25 09:28:15;;;;;;;8.50;7.90;;;;;;;33.84;34.26;100557.38;5014685;28;20220;-46
2022/07/25 09:30:54;;;;;;;8.17;7.57;;;;;;;33.58;34.08;100557.03;5040796;23;20236;-45
2022/07/25 09:33:23;;;;;;;8.57;8.07;;;;;;;33.64;34.17;100563.94;5039646;28;20297;-45
2022/07/25 09:35:51;;;;;;;8.83;8.23;;;;;;;33.63;34.49;100563.13;5033821;28;20193;-50
2022/07/25 09:38:20;;;;;;;8.20;7.70;;;;;;;33.55;34.60;100563.28;5034106;28;20203;-51
2022/07/25 09:40:55;;;;;;;7.80;7.27;;;;;;;33.56;35.20;100557.41;5033335;28;20220;-48
2022/07/25 09:43:35;;;;;;;8.27;7.55;;;;;;;33.45;34.90;100555.53;5033314;28;20193;-49
2022/07/25 09:46:03;;;;;;;7.10;6.70;;;;;;;33.43;35.61;100550.34;5033669;28;20551;-50
2022/07/25 09:48:32;;;;;;;8.10;7.60;;;;;;;33.17;36.39;100556.34;5033603;28;20205;-46
2022/07/25 09:51:00;;;;;;;8.70;7.90;;;;;;;33.19;36.67;100558.75;5033310;28;20209;-47
2022/07/25 09:53:28;;;;;;;7.90;7.40;;;;;;;33.13;36.75;100560.97;5033542;28;20199;-49
2022/07/25 09:55:56;;;;;;;8.53;7.90;;;;;;;33.12;36.49;100558.56;5033613;28;20203;-47
2022/07/25 09:58:27;;;;;;;8.67;8.07;;;;;;;33.18;36.03;100557.97;5033610;28;20301;-51
2022/07/25 10:01:00;;;;;;;8.70;8.17;;;;;;;33.49;36.58;100551.69;5032093;28;20224;-47
2022/07/25 10:03:38;;;;;;;8.47;7.87;;;;;;;33.64;35.53;100555.66;5047747;28;20196;-49
2022/07/25 10:06:19;;;;;;;8.70;8.07;;;;;;;33.38;36.28;100554.19;5053031;28;20241;-46
2022/07/25 10:08:48;;;;;;;8.63;8.13;;;;;;;33.50;36.01;100545.00;5053217;28;20196;-51
2022/07/25 10:11:19;;;;;;;8.47;7.83;;;;;;;33.34;35.86;100544.16;5052318;28;20228;-49
2022/07/25 10:13:49;;;;;;;9.40;8.63;;;;;;;33.27;36.85;100553.06;5052961;28;20197;-50
2022/07/25 10:16:18;;;;;;;8.50;7.77;;;;;;;33.25;35.99;100549.84;5052613;28;20203;-48
2022/07/25 10:18:51;;;;;;;8.97;8.27;;;;;;;33.17;35.43;100542.53;5052936;28;20195;-51
2022/07/25 10:21:20;;;;;;;8.73;7.80;;;;;;;33.20;36.61;100535.50;5052243;28;20228;-50
2022/07/25 10:24:01;;;;;;;9.17;8.40;;;;;;;33.28;35.49;100545.56;5052835;28;20284;-47
2022/07/25 10:26:30;;;;;;;7.43;6.93;;;;;;;33.32;35.61;100540.97;5052612;28;20637;-49
2022/07/25 10:29:00;;;;;;;8.67;8.17;;;;;;;33.19;34.57;100547.69;5050276;28;20192;-46
2022/07/25 10:31:35;;;;;;;9.17;8.47;;;;;;;33.13;35.69;100541.63;5051598;28;20256;-50
2022/07/25 10:34:05;;;;;;;8.60;8.00;;;;;;;32.99;36.82;100545.91;5037920;28;20553;-49
2022/07/25 10:36:45;;;;;;;8.93;8.23;;;;;;;32.88;35.83;100531.00;5032708;28;20599;-47
2022/07/25 10:39:15;;;;;;;8.37;7.73;;;;;;;32.72;36.05;100533.69;5032772;28;20196;-50
2022/07/25 10:41:49;;;;;;;8.27;7.63;;;;;;;32.38;36.58;100532.22;5032248;28;20239;-50
2022/07/25 10:44:18;;;;;;;9.37;8.47;;;;;;;32.04;37.10;100532.75;5032426;28;20551;-50
2022/07/25 10:46:46;;;;;;;9.83;9.23;;;;;;;32.16;37.18;100529.97;5032071;28;20197;-50
2022/07/25 10:49:18;;;;;;;10.50;9.70;;;;;;;32.58;37.78;100530.53;5032719;28;20201;-51
2022/07/25 10:51:56;;;;;;;8.90;8.20;;;;;;;33.09;36.58;100532.44;5032052;28;20355;-51
2022/07/25 10:54:24;;;;;;;9.90;9.03;;;;;;;33.22;37.02;100530.41;5031542;28;20207;-49
2022/07/25 10:56:55;;;;;;;9.80;9.03;;;;;;;33.33;36.11;100524.00;5032455;28;20193;-52
2022/07/25 10:59:29;;;;;;;8.37;7.57;;;;;;;33.63;36.35;100526.41;5032693;28;20204;-47
2022/07/25 11:01:57;;;;;;;8.97;8.33;;;;;;;34.03;35.56;100528.97;5031788;28;20228;-47
2022/07/25 11:04:25;;;;;;;8.20;7.73;;;;;;;34.19;35.24;100527.81;5032176;28;20696;-46
2022/07/25 11:06:52;;;;;;;8.88;8.23;;;;;;;34.07;34.87;100530.66;5032288;28;20197;-46
2022/07/25 11:09:23;;;;;;;8.95;8.25;;;;;;;34.13;34.91;100523.72;5032172;28;20193;-48
2022/07/25 11:11:56;;;;;;;8.67;8.07;;;;;;;33.89;35.50;100515.59;5031649;28;20229;-48
2022/07/25 11:14:25;;;;;;;8.40;7.90;;;;;;;33.73;35.42;100507.31;5031841;28;20677;-47
2022/07/25 11:16:54;;;;;;;8.33;7.63;;;;;;;33.52;35.55;100492.09;5031016;28;20204;-48
2022/07/25 11:19:24;;;;;;;7.87;7.27;;;;;;;33.23;35.14;100502.44;5032134;28;20288;-51
2022/07/25 11:21:54;;;;;;;8.98;8.38;;;;;;;32.81;35.84;100485.44;5031386;28;20243;-51
2022/07/25 11:24:22;;;;;;;8.20;7.53;;;;;;;32.54;36.63;100482.63;5032044;28;20573;-51
2022/07/25 11:26:51;;;;;;;9.13;8.23;;;;;;;32.54;36.78;100527.63;5032114;28;20193;-49
2022/07/25 11:29:23;;;;;;;11.40;8.93;;;;;;;32.60;37.37;100523.50;5031263;28;20204;-50
2022/07/25 11:31:53;;;;;;;9.17;8.57;;;;;;;32.64;37.43;100529.13;5030433;28;20235;-51
2022/07/25 11:34:24;;;;;;;9.10;8.50;;;;;;;32.58;38.50;100528.56;5030876;28;20197;-45